RYR426 EIDW-EKCH
Flight info
| Callsign | RYR426 |
|---|---|
| Flight time | N/A |
| Altitude | 37000 |
| Route | ENDEQ3J ENDEQ Q36 ALAVA Z195 MALUD UL975 WAL M16 NAPEX DCT LAMIX UT29 LIBSO UL975 ERDOW DCT ROPAL DCT LESRA DCT TESPI |
| Aircraft | B738/M-SDE2E3FGHIRWXY/LB1 |
Departure
| Time | 2026-05-04 14:46 |
|---|---|
| Airport | Dublin Airport (EIDW) |
Arrival
| Time | N/A |
|---|---|
| Airport | Copenhagen Kastrup Airport (EKCH) |
| Time | Latitude | Longitude | Altitude | Speed | Heading |
|---|---|---|---|---|---|
| 2026-05-04 14:16 | 53.42666 | -6.24704 | 213 ft | 0 kts | 147° |
| 2026-05-04 14:34 | 53.42681 | -6.24721 | 213 ft | 4 kts | 136° |
| 2026-05-04 14:34 | 53.42694 | -6.24746 | 211 ft | 0 kts | 117° |
| 2026-05-04 14:37 | 53.42693 | -6.24743 | 211 ft | 2 kts | 119° |
| 2026-05-04 14:37 | 53.42672 | -6.24739 | 237 ft | 4 kts | 203° |
| 2026-05-04 14:37 | 53.42659 | -6.24775 | 202 ft | 4 kts | 251° |
| 2026-05-04 14:38 | 53.42649 | -6.24815 | 217 ft | 4 kts | 246° |
| 2026-05-04 14:38 | 53.42636 | -6.24860 | 215 ft | 3 kts | 236° |
| 2026-05-04 14:38 | 53.42614 | -6.24870 | 213 ft | 3 kts | 175° |
| 2026-05-04 14:38 | 53.42581 | -6.24876 | 212 ft | 7 kts | 202° |
| 2026-05-04 14:39 | 53.42542 | -6.24949 | 213 ft | 9 kts | 224° |
| 2026-05-04 14:39 | 53.42484 | -6.24949 | 212 ft | 9 kts | 158° |
| 2026-05-04 14:39 | 53.42429 | -6.24911 | 216 ft | 8 kts | 157° |
| 2026-05-04 14:40 | 53.42292 | -6.24891 | 214 ft | 12 kts | 223° |
| 2026-05-04 14:40 | 53.42235 | -6.24991 | 216 ft | 12 kts | 230° |
| 2026-05-04 14:40 | 53.42202 | -6.25111 | 210 ft | 11 kts | 270° |
| 2026-05-04 14:40 | 53.42208 | -6.25246 | 218 ft | 13 kts | 276° |
| 2026-05-04 14:41 | 53.42217 | -6.25416 | 212 ft | 18 kts | 277° |
| 2026-05-04 14:41 | 53.42232 | -6.25656 | 210 ft | 23 kts | 275° |
| 2026-05-04 14:41 | 53.42262 | -6.26223 | 210 ft | 23 kts | 275° |
| 2026-05-04 14:42 | 53.42291 | -6.26746 | 210 ft | 22 kts | 276° |
| 2026-05-04 14:42 | 53.42305 | -6.26997 | 210 ft | 21 kts | 275° |
| 2026-05-04 14:42 | 53.42318 | -6.27241 | 210 ft | 21 kts | 275° |
| 2026-05-04 14:43 | 53.42331 | -6.27484 | 210 ft | 22 kts | 276° |
| 2026-05-04 14:43 | 53.42346 | -6.27766 | 210 ft | 27 kts | 275° |
| 2026-05-04 14:43 | 53.42365 | -6.28099 | 210 ft | 31 kts | 275° |
| 2026-05-04 14:43 | 53.42384 | -6.28450 | 210 ft | 30 kts | 276° |
| 2026-05-04 14:44 | 53.42403 | -6.28779 | 210 ft | 25 kts | 275° |
| 2026-05-04 14:44 | 53.42410 | -6.28977 | 212 ft | 13 kts | 260° |
| 2026-05-04 14:44 | 53.42350 | -6.29072 | 214 ft | 13 kts | 191° |
| 2026-05-04 14:44 | 53.42264 | -6.29058 | 208 ft | 12 kts | 152° |
| 2026-05-04 14:45 | 53.42237 | -6.28944 | 211 ft | 6 kts | 92° |
| 2026-05-04 14:45 | 53.42237 | -6.28941 | 212 ft | 0 kts | 92° |
| 2026-05-04 14:45 | 53.42223 | -6.28645 | 215 ft | 60 kts | 95° |
| 2026-05-04 14:45 | 53.42163 | -6.27558 | 217 ft | 125 kts | 95° |
| 2026-05-04 14:46 | 53.42069 | -6.25853 | 398 ft | 158 kts | 95° |
| 2026-05-04 14:46 | 53.41964 | -6.24050 | 1223 ft | 153 kts | 94° |
| 2026-05-04 14:46 | 53.41856 | -6.22222 | 1898 ft | 162 kts | 92° |
| 2026-05-04 14:46 | 53.41746 | -6.20183 | 2273 ft | 192 kts | 93° |
| 2026-05-04 14:47 | 53.41618 | -6.17787 | 2532 ft | 220 kts | 92° |
| 2026-05-04 14:47 | 53.41475 | -6.15120 | 2779 ft | 240 kts | 92° |
| 2026-05-04 14:47 | 53.41317 | -6.12245 | 3128 ft | 257 kts | 93° |
| 2026-05-04 14:47 | 53.41150 | -6.09224 | 3890 ft | 261 kts | 93° |
| 2026-05-04 14:48 | 53.40980 | -6.06182 | 4733 ft | 264 kts | 94° |
| 2026-05-04 14:48 | 53.40900 | -6.03087 | 5509 ft | 268 kts | 86° |
| 2026-05-04 14:48 | 53.41103 | -5.99945 | 6237 ft | 275 kts | 82° |
| 2026-05-04 14:48 | 53.41282 | -5.97776 | 6684 ft | 280 kts | 82° |
| 2026-05-04 14:49 | 53.41627 | -5.93496 | 7784 ft | 280 kts | 82° |
| 2026-05-04 14:49 | 53.41792 | -5.91303 | 8313 ft | 282 kts | 83° |
| 2026-05-04 14:49 | 53.42023 | -5.88062 | 8926 ft | 284 kts | 83° |
| 2026-05-04 14:49 | 53.42250 | -5.84755 | 9052 ft | 286 kts | 83° |
| 2026-05-04 14:50 | 53.42474 | -5.81435 | 9084 ft | 287 kts | 83° |
| 2026-05-04 14:50 | 53.42701 | -5.78089 | 9257 ft | 292 kts | 83° |
| 2026-05-04 14:50 | 53.42933 | -5.74702 | 10075 ft | 291 kts | 83° |
| 2026-05-04 14:50 | 53.43166 | -5.71301 | 10644 ft | 301 kts | 83° |
| 2026-05-04 14:51 | 53.43414 | -5.67669 | 10805 ft | 325 kts | 83° |
| 2026-05-04 14:51 | 53.43676 | -5.63803 | 11164 ft | 339 kts | 83° |
| 2026-05-04 14:51 | 53.43944 | -5.59837 | 11811 ft | 344 kts | 83° |
| 2026-05-04 14:51 | 53.44212 | -5.55836 | 12559 ft | 347 kts | 83° |
| 2026-05-04 14:52 | 53.44481 | -5.51803 | 13311 ft | 350 kts | 83° |
| 2026-05-04 14:52 | 53.44672 | -5.47749 | 13910 ft | 359 kts | 89° |
| 2026-05-04 14:52 | 53.44593 | -5.43490 | 14333 ft | 370 kts | 92° |
| 2026-05-04 14:52 | 53.44420 | -5.39153 | 14972 ft | 374 kts | 93° |
| 2026-05-04 14:53 | 53.44245 | -5.34781 | 15721 ft | 375 kts | 93° |
| 2026-05-04 14:53 | 53.44091 | -5.30401 | 16453 ft | 377 kts | 92° |
| 2026-05-04 14:53 | 53.43958 | -5.25991 | 17151 ft | 380 kts | 91° |
| 2026-05-04 14:53 | 53.43833 | -5.21529 | 17798 ft | 385 kts | 91° |
| 2026-05-04 14:54 | 53.43707 | -5.17019 | 18470 ft | 388 kts | 91° |
| 2026-05-04 14:54 | 53.43580 | -5.12481 | 19042 ft | 391 kts | 91° |
| 2026-05-04 14:54 | 53.43449 | -5.07913 | 19615 ft | 393 kts | 91° |
| 2026-05-04 14:54 | 53.43315 | -5.03327 | 20293 ft | 393 kts | 91° |
| 2026-05-04 14:55 | 53.43180 | -4.98732 | 20879 ft | 396 kts | 91° |
| 2026-05-04 14:55 | 53.43043 | -4.94095 | 21387 ft | 400 kts | 91° |
| 2026-05-04 14:55 | 53.42904 | -4.89476 | 21940 ft | 403 kts | 91° |
| 2026-05-04 14:55 | 53.42759 | -4.84776 | 22508 ft | 405 kts | 91° |
| 2026-05-04 14:56 | 53.42603 | -4.80048 | 23068 ft | 407 kts | 92° |
| 2026-05-04 14:56 | 53.42440 | -4.75290 | 23613 ft | 409 kts | 92° |
| 2026-05-04 14:56 | 53.42273 | -4.70514 | 24055 ft | 411 kts | 91° |
| 2026-05-04 14:56 | 53.42103 | -4.65714 | 24508 ft | 413 kts | 91° |
| 2026-05-04 14:57 | 53.41932 | -4.60882 | 24954 ft | 415 kts | 92° |
| 2026-05-04 14:57 | 53.41760 | -4.56099 | 25388 ft | 416 kts | 91° |
| 2026-05-04 14:57 | 53.41585 | -4.51243 | 25810 ft | 418 kts | 91° |
| 2026-05-04 14:57 | 53.41407 | -4.46371 | 26227 ft | 420 kts | 91° |
| 2026-05-04 14:58 | 53.41227 | -4.41470 | 26630 ft | 422 kts | 91° |
| 2026-05-04 14:58 | 53.41043 | -4.36535 | 27023 ft | 424 kts | 91° |
| 2026-05-04 14:58 | 53.40856 | -4.31583 | 27410 ft | 426 kts | 91° |
| 2026-05-04 14:58 | 53.40667 | -4.26612 | 27794 ft | 428 kts | 91° |
| 2026-05-04 14:59 | 53.40474 | -4.21610 | 28166 ft | 430 kts | 91° |
| 2026-05-04 14:59 | 53.40279 | -4.16607 | 28524 ft | 431 kts | 91° |
| 2026-05-04 14:59 | 53.39882 | -4.06532 | 29261 ft | 434 kts | 91° |
| 2026-05-04 15:00 | 53.39679 | -4.01480 | 29631 ft | 435 kts | 91° |
| 2026-05-04 15:00 | 53.39517 | -3.96475 | 30024 ft | 434 kts | 88° |
| 2026-05-04 15:00 | 53.39668 | -3.91455 | 30453 ft | 430 kts | 83° |
| 2026-05-04 15:01 | 53.40246 | -3.81518 | 31228 ft | 427 kts | 83° |
| 2026-05-04 15:01 | 53.40524 | -3.76560 | 31539 ft | 428 kts | 83° |
| 2026-05-04 15:01 | 53.40780 | -3.71598 | 31892 ft | 427 kts | 83° |
| 2026-05-04 15:01 | 53.41022 | -3.66645 | 32280 ft | 426 kts | 84° |
| 2026-05-04 15:02 | 53.41252 | -3.61687 | 32647 ft | 425 kts | 85° |
| 2026-05-04 15:02 | 53.41238 | -3.56715 | 32969 ft | 426 kts | 92° |
| 2026-05-04 15:02 | 53.41016 | -3.51767 | 33298 ft | 426 kts | 93° |
| 2026-05-04 15:02 | 53.40764 | -3.46885 | 33660 ft | 425 kts | 93° |
| 2026-05-04 15:03 | 53.40513 | -3.41968 | 34029 ft | 423 kts | 93° |
| 2026-05-04 15:03 | 53.40275 | -3.37043 | 34298 ft | 423 kts | 93° |
| 2026-05-04 15:03 | 53.40048 | -3.32117 | 34467 ft | 425 kts | 93° |
| 2026-05-04 15:03 | 53.39824 | -3.27155 | 34638 ft | 427 kts | 93° |
| 2026-05-04 15:04 | 53.39602 | -3.22194 | 34862 ft | 428 kts | 93° |
| 2026-05-04 15:04 | 53.39376 | -3.17211 | 35084 ft | 429 kts | 93° |
| 2026-05-04 15:04 | 53.39148 | -3.12226 | 35271 ft | 430 kts | 93° |
| 2026-05-04 15:04 | 53.38945 | -3.07209 | 35466 ft | 432 kts | 92° |
| 2026-05-04 15:05 | 53.38759 | -3.02180 | 35634 ft | 433 kts | 92° |
| 2026-05-04 15:05 | 53.38576 | -2.97124 | 35823 ft | 435 kts | 92° |
| 2026-05-04 15:05 | 53.38391 | -2.92064 | 36033 ft | 435 kts | 92° |
| 2026-05-04 15:05 | 53.38202 | -2.86998 | 36222 ft | 437 kts | 93° |
| 2026-05-04 15:06 | 53.38007 | -2.81910 | 36394 ft | 438 kts | 93° |
| 2026-05-04 15:06 | 53.37807 | -2.76811 | 36565 ft | 439 kts | 93° |
| 2026-05-04 15:06 | 53.37605 | -2.71707 | 36756 ft | 440 kts | 93° |
| 2026-05-04 15:07 | 53.37193 | -2.61512 | 37044 ft | 443 kts | 93° |
| 2026-05-04 15:07 | 53.36767 | -2.51187 | 37048 ft | 445 kts | 94° |
| 2026-05-04 15:08 | 53.36332 | -2.40869 | 37053 ft | 443 kts | 94° |
| 2026-05-04 15:08 | 53.35894 | -2.30646 | 37046 ft | 442 kts | 94° |
| 2026-05-04 15:09 | 53.35247 | -2.20412 | 37054 ft | 442 kts | 99° |
| 2026-05-04 15:09 | 53.34151 | -2.10302 | 37048 ft | 441 kts | 100° |
| 2026-05-04 15:10 | 53.32491 | -1.95137 | 37055 ft | 442 kts | 99° |
| 2026-05-04 15:11 | 53.30897 | -1.79990 | 37067 ft | 443 kts | 99° |
| 2026-05-04 15:11 | 53.29821 | -1.69833 | 37066 ft | 444 kts | 99° |
| 2026-05-04 15:12 | 53.28730 | -1.59658 | 37067 ft | 445 kts | 100° |
| 2026-05-04 15:12 | 53.27628 | -1.49451 | 37070 ft | 447 kts | 100° |
| 2026-05-04 15:13 | 53.26522 | -1.39274 | 37070 ft | 448 kts | 100° |
| 2026-05-04 15:13 | 53.25402 | -1.29038 | 37066 ft | 449 kts | 100° |
| 2026-05-04 15:14 | 53.24268 | -1.18769 | 37075 ft | 449 kts | 101° |
| 2026-05-04 15:14 | 53.23124 | -1.08491 | 37068 ft | 450 kts | 101° |
| 2026-05-04 15:15 | 53.21972 | -0.98210 | 37056 ft | 451 kts | 101° |
| 2026-05-04 15:15 | 53.21635 | -0.87915 | 37063 ft | 450 kts | 76° |
| 2026-05-04 15:16 | 53.24560 | -0.78778 | 37068 ft | 451 kts | 47° |
| 2026-05-04 15:16 | 53.26756 | -0.75040 | 37058 ft | 452 kts | 45° |
| 2026-05-04 15:16 | 53.30974 | -0.67274 | 37048 ft | 451 kts | 57° |
| 2026-05-04 15:17 | 53.32503 | -0.62699 | 37056 ft | 451 kts | 65° |
| 2026-05-04 15:17 | 53.36381 | -0.48333 | 37048 ft | 451 kts | 65° |
| 2026-05-04 15:18 | 53.39009 | -0.38849 | 37049 ft | 451 kts | 65° |
| 2026-05-04 15:19 | 53.43033 | -0.24529 | 37056 ft | 451 kts | 65° |
| 2026-05-04 15:19 | 53.47048 | -0.10261 | 37070 ft | 451 kts | 65° |
| 2026-05-04 15:20 | 53.49709 | -0.00742 | 37068 ft | 450 kts | 65° |
| 2026-05-04 15:20 | 53.52458 | 0.08661 | 37046 ft | 451 kts | 58° |
| 2026-05-04 15:21 | 53.56402 | 0.16855 | 37059 ft | 451 kts | 47° |
| 2026-05-04 15:22 | 53.62806 | 0.28523 | 37054 ft | 453 kts | 48° |
| 2026-05-04 15:22 | 53.69137 | 0.40310 | 37056 ft | 454 kts | 48° |
| 2026-05-04 15:23 | 53.73365 | 0.48262 | 37055 ft | 455 kts | 48° |
| 2026-05-04 15:23 | 53.77596 | 0.56246 | 37056 ft | 456 kts | 48° |
| 2026-05-04 15:24 | 53.86049 | 0.72266 | 37050 ft | 456 kts | 48° |
| 2026-05-04 15:25 | 53.90272 | 0.80305 | 37053 ft | 455 kts | 48° |
| 2026-05-04 15:26 | 53.96089 | 0.92927 | 37062 ft | 454 kts | 55° |
| 2026-05-04 15:26 | 54.01451 | 1.06225 | 37056 ft | 454 kts | 55° |
| 2026-05-04 15:27 | 54.06850 | 1.19456 | 37052 ft | 453 kts | 55° |
| 2026-05-04 15:28 | 54.12265 | 1.32674 | 37053 ft | 453 kts | 55° |
| 2026-05-04 15:29 | 54.17647 | 1.45875 | 37052 ft | 453 kts | 55° |
| 2026-05-04 15:30 | 54.30202 | 1.76958 | 37052 ft | 455 kts | 55° |
| 2026-05-04 15:31 | 54.35558 | 1.90338 | 37051 ft | 456 kts | 55° |
| 2026-05-04 15:32 | 54.44523 | 2.12895 | 37048 ft | 457 kts | 55° |
| 2026-05-04 15:34 | 54.52852 | 2.34037 | 37049 ft | 459 kts | 55° |
| 2026-05-04 15:34 | 54.58786 | 2.49210 | 37049 ft | 459 kts | 56° |
| 2026-05-04 15:35 | 54.63533 | 2.61414 | 37046 ft | 460 kts | 56° |
| 2026-05-04 15:36 | 54.68869 | 2.75207 | 37041 ft | 460 kts | 56° |
| 2026-05-04 15:36 | 54.72415 | 2.84413 | 37058 ft | 460 kts | 56° |
| 2026-05-04 15:37 | 54.75958 | 2.93648 | 37050 ft | 460 kts | 56° |
| 2026-05-04 15:37 | 54.79475 | 3.02849 | 37050 ft | 461 kts | 56° |
| 2026-05-04 15:38 | 54.83011 | 3.12134 | 37046 ft | 461 kts | 56° |
| 2026-05-04 15:38 | 54.86541 | 3.21438 | 37047 ft | 461 kts | 56° |
| 2026-05-04 15:39 | 54.90061 | 3.30751 | 37040 ft | 461 kts | 56° |
| 2026-05-04 15:40 | 54.95335 | 3.44772 | 37046 ft | 462 kts | 56° |
| 2026-05-04 15:40 | 54.98848 | 3.54154 | 37045 ft | 463 kts | 56° |
| 2026-05-04 15:41 | 55.02336 | 3.63507 | 37039 ft | 463 kts | 56° |
| 2026-05-04 15:41 | 55.05841 | 3.72939 | 37055 ft | 464 kts | 56° |
| 2026-05-04 15:42 | 55.09360 | 3.82445 | 37033 ft | 468 kts | 56° |
| 2026-05-04 15:42 | 55.12886 | 3.92006 | 37040 ft | 467 kts | 57° |
| 2026-05-04 15:43 | 55.15795 | 4.02060 | 37053 ft | 467 kts | 67° |
| 2026-05-04 15:43 | 55.18225 | 4.12583 | 37042 ft | 466 kts | 68° |
| 2026-05-04 15:44 | 55.20659 | 4.23112 | 37024 ft | 466 kts | 67° |
| 2026-05-04 15:44 | 55.23126 | 4.33592 | 37044 ft | 465 kts | 67° |
| 2026-05-04 15:45 | 55.25604 | 4.44080 | 37034 ft | 466 kts | 67° |
| 2026-05-04 15:45 | 55.28076 | 4.54594 | 37040 ft | 466 kts | 67° |
| 2026-05-04 15:46 | 55.30538 | 4.65126 | 37036 ft | 467 kts | 67° |
| 2026-05-04 15:46 | 55.33000 | 4.75717 | 37037 ft | 467 kts | 67° |
| 2026-05-04 15:47 | 55.35450 | 4.86302 | 37029 ft | 468 kts | 67° |
| 2026-05-04 15:47 | 55.37880 | 4.96850 | 37034 ft | 469 kts | 68° |
| 2026-05-04 15:48 | 55.39691 | 5.07862 | 37046 ft | 470 kts | 78° |
| 2026-05-04 15:48 | 55.41528 | 5.24844 | 37037 ft | 471 kts | 79° |
| 2026-05-04 15:49 | 55.42763 | 5.36185 | 37038 ft | 473 kts | 78° |
| 2026-05-04 15:49 | 55.44029 | 5.47519 | 37019 ft | 475 kts | 78° |
| 2026-05-04 15:50 | 55.45308 | 5.58941 | 37022 ft | 475 kts | 78° |
| 2026-05-04 15:50 | 55.46578 | 5.70378 | 37016 ft | 475 kts | 79° |
| 2026-05-04 15:51 | 55.47832 | 5.81786 | 37010 ft | 473 kts | 79° |
| 2026-05-04 15:51 | 55.49071 | 5.93166 | 37017 ft | 472 kts | 79° |
| 2026-05-04 15:52 | 55.50295 | 6.04518 | 37021 ft | 470 kts | 79° |
| 2026-05-04 15:52 | 55.51498 | 6.15783 | 37022 ft | 470 kts | 79° |
| 2026-05-04 15:53 | 55.52697 | 6.27109 | 37017 ft | 469 kts | 79° |
| 2026-05-04 15:53 | 55.53885 | 6.38439 | 37020 ft | 469 kts | 79° |
| 2026-05-04 15:54 | 55.55065 | 6.49792 | 37020 ft | 470 kts | 79° |
| 2026-05-04 15:54 | 55.56228 | 6.61100 | 37015 ft | 471 kts | 79° |
| 2026-05-04 15:55 | 55.57390 | 6.72495 | 37017 ft | 472 kts | 79° |
| 2026-05-04 15:55 | 55.58544 | 6.83930 | 37008 ft | 473 kts | 79° |
| 2026-05-04 15:56 | 55.59692 | 6.95422 | 37022 ft | 474 kts | 80° |
| 2026-05-04 15:56 | 55.60831 | 7.06929 | 37017 ft | 476 kts | 80° |
| 2026-05-04 15:57 | 55.61956 | 7.18424 | 37007 ft | 477 kts | 80° |
| 2026-05-04 15:57 | 55.63078 | 7.29994 | 37004 ft | 478 kts | 80° |
| 2026-05-04 15:58 | 55.64193 | 7.41610 | 37010 ft | 478 kts | 80° |
| 2026-05-04 15:58 | 55.65297 | 7.53238 | 37004 ft | 478 kts | 80° |
| 2026-05-04 15:59 | 55.66389 | 7.64857 | 37005 ft | 478 kts | 80° |
| 2026-05-04 15:59 | 55.67470 | 7.76488 | 37005 ft | 478 kts | 80° |
| 2026-05-04 16:00 | 55.68531 | 7.88033 | 37002 ft | 477 kts | 81° |
| 2026-05-04 16:00 | 55.69590 | 7.99667 | 37006 ft | 477 kts | 81° |
| 2026-05-04 16:01 | 55.70636 | 8.11289 | 37000 ft | 477 kts | 81° |
| 2026-05-04 16:01 | 55.71670 | 8.22909 | 36997 ft | 477 kts | 81° |
| 2026-05-04 16:02 | 55.72692 | 8.34524 | 36993 ft | 476 kts | 81° |
| 2026-05-04 16:03 | 55.74205 | 8.51965 | 36986 ft | 477 kts | 81° |
| 2026-05-04 16:03 | 55.75195 | 8.63535 | 36968 ft | 477 kts | 81° |
| 2026-05-04 16:03 | 55.75692 | 8.69399 | 36468 ft | 482 kts | 81° |
| 2026-05-04 16:04 | 55.76188 | 8.75286 | 35941 ft | 480 kts | 81° |
| 2026-05-04 16:04 | 55.77168 | 8.87011 | 34709 ft | 479 kts | 81° |
| 2026-05-04 16:04 | 55.77654 | 8.92881 | 34084 ft | 479 kts | 81° |
| 2026-05-04 16:05 | 55.78136 | 8.98740 | 33378 ft | 479 kts | 81° |
| 2026-05-04 16:05 | 55.78605 | 9.04479 | 32955 ft | 472 kts | 81° |
| 2026-05-04 16:05 | 55.79534 | 9.15932 | 32032 ft | 462 kts | 81° |
| 2026-05-04 16:06 | 55.79986 | 9.21564 | 31592 ft | 457 kts | 81° |
| 2026-05-04 16:06 | 55.81157 | 9.36288 | 30418 ft | 446 kts | 81° |
| 2026-05-04 16:07 | 55.81729 | 9.43564 | 29785 ft | 441 kts | 82° |
| 2026-05-04 16:07 | 55.82965 | 9.59503 | 28464 ft | 426 kts | 82° |
| 2026-05-04 16:08 | 55.83358 | 9.64625 | 28041 ft | 422 kts | 82° |
| 2026-05-04 16:08 | 55.84520 | 9.79942 | 26760 ft | 412 kts | 82° |
| 2026-05-04 16:09 | 55.85271 | 9.89976 | 25927 ft | 406 kts | 82° |
| 2026-05-04 16:09 | 55.86005 | 9.99907 | 25112 ft | 402 kts | 82° |
| 2026-05-04 16:10 | 55.86725 | 10.09748 | 24311 ft | 399 kts | 82° |
| 2026-05-04 16:11 | 55.87783 | 10.24419 | 23046 ft | 396 kts | 82° |
| 2026-05-04 16:11 | 55.88125 | 10.29208 | 22615 ft | 395 kts | 82° |
| 2026-05-04 16:12 | 55.89146 | 10.43673 | 21385 ft | 389 kts | 82° |
| 2026-05-04 16:12 | 55.89315 | 10.57928 | 20215 ft | 382 kts | 103° |
| 2026-05-04 16:13 | 55.88164 | 10.67128 | 19461 ft | 378 kts | 104° |
| 2026-05-04 16:13 | 55.87023 | 10.76193 | 18705 ft | 376 kts | 104° |
| 2026-05-04 16:14 | 55.85910 | 10.85295 | 17906 ft | 374 kts | 104° |
| 2026-05-04 16:14 | 55.84804 | 10.94309 | 17098 ft | 371 kts | 104° |
| 2026-05-04 16:15 | 55.82879 | 11.07436 | 15982 ft | 364 kts | 107° |
| 2026-05-04 16:16 | 55.81575 | 11.16093 | 15250 ft | 360 kts | 106° |
| 2026-05-04 16:16 | 55.79661 | 11.28908 | 14161 ft | 355 kts | 106° |
| 2026-05-04 16:17 | 55.78412 | 11.37260 | 13742 ft | 342 kts | 106° |
| 2026-05-04 16:18 | 55.76960 | 11.49242 | 13109 ft | 329 kts | 96° |
| 2026-05-04 16:18 | 55.76772 | 11.53297 | 12857 ft | 329 kts | 95° |
| 2026-05-04 16:19 | 55.76188 | 11.65514 | 12086 ft | 331 kts | 96° |
| 2026-05-04 16:19 | 55.75737 | 11.73657 | 11564 ft | 330 kts | 96° |
| 2026-05-04 16:20 | 55.75047 | 11.85594 | 10762 ft | 320 kts | 96° |
| 2026-05-04 16:20 | 55.74581 | 11.93497 | 10045 ft | 322 kts | 96° |
| 2026-05-04 16:21 | 55.73894 | 12.05054 | 9231 ft | 313 kts | 96° |
| 2026-05-04 16:22 | 55.73432 | 12.12712 | 8575 ft | 311 kts | 97° |
| 2026-05-04 16:22 | 55.72816 | 12.22797 | 7775 ft | 306 kts | 96° |
| 2026-05-04 16:23 | 55.72123 | 12.33963 | 6923 ft | 301 kts | 96° |
| 2026-05-04 16:24 | 55.71204 | 12.48575 | 5775 ft | 295 kts | 95° |
| 2026-05-04 16:25 | 55.72223 | 12.55373 | 5225 ft | 286 kts | 59° |
| 2026-05-04 16:26 | 55.76037 | 12.67388 | 4291 ft | 267 kts | 48° |
| 2026-05-04 16:26 | 55.79006 | 12.75242 | 3906 ft | 253 kts | 83° |
| 2026-05-04 16:27 | 55.77798 | 12.80773 | 3505 ft | 246 kts | 131° |
| 2026-05-04 16:28 | 55.73818 | 12.84952 | 2796 ft | 220 kts | 207° |